sensor_id;sensor_type;location;lat;lon;timestamp;P1;durP1;ratioP1;P2;durP2;ratioP2
31308;SDS011;17936;52.446;10.840;2023-06-14T00:02:12;5.78;;;1.88;;
31308;SDS011;17936;52.446;10.840;2023-06-14T00:04:37;2.53;;;1.60;;
31308;SDS011;17936;52.446;10.840;2023-06-14T00:07:04;2.63;;;1.58;;
31308;SDS011;17936;52.446;10.840;2023-06-14T00:09:33;3.88;;;1.70;;
31308;SDS011;17936;52.446;10.840;2023-06-14T00:11:58;3.17;;;1.77;;
31308;SDS011;17936;52.446;10.840;2023-06-14T00:14:24;3.33;;;1.80;;
31308;SDS011;17936;52.446;10.840;2023-06-14T00:16:49;3.10;;;1.90;;
31308;SDS011;17936;52.446;10.840;2023-06-14T00:19:17;2.58;;;1.60;;
31308;SDS011;17936;52.446;10.840;2023-06-14T00:21:43;6.15;;;1.60;;
31308;SDS011;17936;52.446;10.840;2023-06-14T00:24:08;3.47;;;1.60;;
31308;SDS011;17936;52.446;10.840;2023-06-14T00:26:34;5.78;;;2.25;;
31308;SDS011;17936;52.446;10.840;2023-06-14T00:28:59;2.83;;;1.73;;
31308;SDS011;17936;52.446;10.840;2023-06-14T00:31:25;3.35;;;1.40;;
31308;SDS011;17936;52.446;10.840;2023-06-14T00:33:51;4.95;;;1.65;;
31308;SDS011;17936;52.446;10.840;2023-06-14T00:36:16;2.88;;;1.73;;
31308;SDS011;17936;52.446;10.840;2023-06-14T00:38:42;6.15;;;2.13;;
31308;SDS011;17936;52.446;10.840;2023-06-14T00:41:07;3.20;;;1.40;;
31308;SDS011;17936;52.446;10.840;2023-06-14T00:43:33;6.95;;;1.65;;
31308;SDS011;17936;52.446;10.840;2023-06-14T00:45:59;7.30;;;1.45;;
31308;SDS011;17936;52.446;10.840;2023-06-14T00:48:25;3.35;;;1.60;;
31308;SDS011;17936;52.446;10.840;2023-06-14T00:50:52;5.95;;;1.48;;
31308;SDS011;17936;52.446;10.840;2023-06-14T00:53:18;3.22;;;1.63;;
31308;SDS011;17936;52.446;10.840;2023-06-14T00:55:45;4.28;;;1.90;;
31308;SDS011;17936;52.446;10.840;2023-06-14T00:58:12;3.28;;;1.40;;
31308;SDS011;17936;52.446;10.840;2023-06-14T01:00:38;3.58;;;1.63;;
31308;SDS011;17936;52.446;10.840;2023-06-14T01:03:04;2.78;;;1.75;;
31308;SDS011;17936;52.446;10.840;2023-06-14T01:05:30;7.60;;;1.75;;
31308;SDS011;17936;52.446;10.840;2023-06-14T01:08:03;1.95;;;1.50;;
31308;SDS011;17936;52.446;10.840;2023-06-14T01:11:02;4.22;;;1.70;;
31308;SDS011;17936;52.446;10.840;2023-06-14T01:13:35;4.13;;;1.67;;
31308;SDS011;17936;52.446;10.840;2023-06-14T01:16:02;3.28;;;1.70;;
31308;SDS011;17936;52.446;10.840;2023-06-14T01:18:29;3.67;;;1.90;;
31308;SDS011;17936;52.446;10.840;2023-06-14T01:20:55;2.95;;;1.50;;
31308;SDS011;17936;52.446;10.840;2023-06-14T01:23:21;4.60;;;1.88;;
31308;SDS011;17936;52.446;10.840;2023-06-14T01:25:48;3.35;;;1.80;;
31308;SDS011;17936;52.446;10.840;2023-06-14T01:28:18;2.50;;;1.60;;
31308;SDS011;17936;52.446;10.840;2023-06-14T01:30:46;3.38;;;1.48;;
31308;SDS011;17936;52.446;10.840;2023-06-14T01:33:20;5.93;;;1.60;;
31308;SDS011;17936;52.446;10.840;2023-06-14T01:35:49;2.35;;;1.85;;
31308;SDS011;17936;52.446;10.840;2023-06-14T01:38:19;4.50;;;1.67;;
31308;SDS011;17936;52.446;10.840;2023-06-14T01:40:49;3.72;;;1.77;;
31308;SDS011;17936;52.446;10.840;2023-06-14T01:43:16;4.90;;;1.83;;
31308;SDS011;17936;52.446;10.840;2023-06-14T01:45:44;2.60;;;1.35;;
31308;SDS011;17936;52.446;10.840;2023-06-14T01:48:12;2.95;;;1.58;;
31308;SDS011;17936;52.446;10.840;2023-06-14T01:50:37;4.30;;;1.98;;
31308;SDS011;17936;52.446;10.840;2023-06-14T01:53:05;4.10;;;1.77;;
31308;SDS011;17936;52.446;10.840;2023-06-14T01:55:34;3.40;;;1.70;;
31308;SDS011;17936;52.446;10.840;2023-06-14T01:58:02;5.50;;;2.08;;
31308;SDS011;17936;52.446;10.840;2023-06-14T02:00:28;2.42;;;1.65;;
31308;SDS011;17936;52.446;10.840;2023-06-14T02:02:54;3.58;;;1.60;;
31308;SDS011;17936;52.446;10.840;2023-06-14T02:05:20;8.10;;;2.20;;
31308;SDS011;17936;52.446;10.840;2023-06-14T02:07:46;2.90;;;1.70;;
31308;SDS011;17936;52.446;10.840;2023-06-14T02:10:12;2.83;;;1.88;;
31308;SDS011;17936;52.446;10.840;2023-06-14T02:12:38;2.35;;;1.58;;
31308;SDS011;17936;52.446;10.840;2023-06-14T02:15:03;4.05;;;1.65;;
31308;SDS011;17936;52.446;10.840;2023-06-14T02:17:31;4.30;;;1.83;;
31308;SDS011;17936;52.446;10.840;2023-06-14T02:19:56;3.40;;;1.60;;
31308;SDS011;17936;52.446;10.840;2023-06-14T02:22:22;6.47;;;1.77;;
31308;SDS011;17936;52.446;10.840;2023-06-14T02:24:47;3.67;;;1.52;;
31308;SDS011;17936;52.446;10.840;2023-06-14T02:27:13;3.67;;;1.75;;
31308;SDS011;17936;52.446;10.840;2023-06-14T02:29:39;3.47;;;2.03;;
31308;SDS011;17936;52.446;10.840;2023-06-14T02:32:04;5.15;;;1.83;;
31308;SDS011;17936;52.446;10.840;2023-06-14T02:34:32;5.43;;;1.70;;
31308;SDS011;17936;52.446;10.840;2023-06-14T02:36:58;4.30;;;1.63;;
31308;SDS011;17936;52.446;10.840;2023-06-14T02:39:24;5.47;;;1.90;;
31308;SDS011;17936;52.446;10.840;2023-06-14T02:41:50;3.28;;;1.60;;
31308;SDS011;17936;52.446;10.840;2023-06-14T02:44:17;10.30;;;1.83;;
31308;SDS011;17936;52.446;10.840;2023-06-14T02:46:43;7.25;;;1.70;;
31308;SDS011;17936;52.446;10.840;2023-06-14T02:49:09;3.38;;;2.00;;
31308;SDS011;17936;52.446;10.840;2023-06-14T02:51:36;5.45;;;1.95;;
31308;SDS011;17936;52.446;10.840;2023-06-14T02:54:01;10.23;;;1.83;;
31308;SDS011;17936;52.446;10.840;2023-06-14T02:56:27;2.58;;;1.80;;
31308;SDS011;17936;52.446;10.840;2023-06-14T02:58:54;3.67;;;1.63;;
31308;SDS011;17936;52.446;10.840;2023-06-14T03:01:20;8.63;;;1.80;;
31308;SDS011;17936;52.446;10.840;2023-06-14T03:03:46;5.65;;;1.98;;
31308;SDS011;17936;52.446;10.840;2023-06-14T03:06:12;2.50;;;1.50;;
31308;SDS011;17936;52.446;10.840;2023-06-14T03:08:39;6.40;;;1.80;;
31308;SDS011;17936;52.446;10.840;2023-06-14T03:11:06;3.58;;;1.73;;
31308;SDS011;17936;52.446;10.840;2023-06-14T03:13:32;3.58;;;2.15;;
31308;SDS011;17936;52.446;10.840;2023-06-14T03:15:59;7.15;;;2.38;;
31308;SDS011;17936;52.446;10.840;2023-06-14T03:18:25;5.85;;;1.85;;
31308;SDS011;17936;52.446;10.840;2023-06-14T03:20:51;6.60;;;2.08;;
31308;SDS011;17936;52.446;10.840;2023-06-14T03:23:18;6.57;;;2.15;;
31308;SDS011;17936;52.446;10.840;2023-06-14T03:25:44;3.92;;;2.40;;
31308;SDS011;17936;52.446;10.840;2023-06-14T03:28:10;7.65;;;1.90;;
31308;SDS011;17936;52.446;10.840;2023-06-14T03:30:35;6.15;;;1.88;;
31308;SDS011;17936;52.446;10.840;2023-06-14T03:33:01;3.47;;;2.00;;
31308;SDS011;17936;52.446;10.840;2023-06-14T03:35:27;4.70;;;1.95;;
31308;SDS011;17936;52.446;10.840;2023-06-14T03:37:53;5.97;;;2.08;;
31308;SDS011;17936;52.446;10.840;2023-06-14T03:40:20;2.42;;;1.60;;
31308;SDS011;17936;52.446;10.840;2023-06-14T03:42:46;11.35;;;2.10;;
31308;SDS011;17936;52.446;10.840;2023-06-14T03:45:12;3.42;;;1.77;;
31308;SDS011;17936;52.446;10.840;2023-06-14T03:47:37;4.00;;;1.67;;
31308;SDS011;17936;52.446;10.840;2023-06-14T03:50:03;2.67;;;1.55;;
31308;SDS011;17936;52.446;10.840;2023-06-14T03:52:29;5.38;;;1.88;;
31308;SDS011;17936;52.446;10.840;2023-06-14T03:54:54;6.63;;;1.92;;
31308;SDS011;17936;52.446;10.840;2023-06-14T03:57:21;7.18;;;2.58;;
31308;SDS011;17936;52.446;10.840;2023-06-14T03:59:48;4.65;;;1.70;;
31308;SDS011;17936;52.446;10.840;2023-06-14T04:02:14;12.55;;;2.17;;
31308;SDS011;17936;52.446;10.840;2023-06-14T04:04:41;3.45;;;2.28;;
31308;SDS011;17936;52.446;10.840;2023-06-14T04:07:09;4.75;;;2.03;;
31308;SDS011;17936;52.446;10.840;2023-06-14T04:09:35;3.88;;;1.92;;
31308;SDS011;17936;52.446;10.840;2023-06-14T04:12:00;3.15;;;1.90;;
31308;SDS011;17936;52.446;10.840;2023-06-14T04:14:26;4.57;;;1.77;;
31308;SDS011;17936;52.446;10.840;2023-06-14T04:16:51;6.20;;;2.00;;
31308;SDS011;17936;52.446;10.840;2023-06-14T04:19:17;4.93;;;1.85;;
31308;SDS011;17936;52.446;10.840;2023-06-14T04:21:42;4.10;;;1.95;;
31308;SDS011;17936;52.446;10.840;2023-06-14T04:24:08;4.05;;;1.98;;
31308;SDS011;17936;52.446;10.840;2023-06-14T04:26:38;3.75;;;2.00;;
31308;SDS011;17936;52.446;10.840;2023-06-14T04:29:05;6.70;;;2.30;;
31308;SDS011;17936;52.446;10.840;2023-06-14T04:31:31;3.45;;;2.03;;
31308;SDS011;17936;52.446;10.840;2023-06-14T04:34:02;3.88;;;1.60;;
31308;SDS011;17936;52.446;10.840;2023-06-14T04:36:30;4.28;;;2.47;;
31308;SDS011;17936;52.446;10.840;2023-06-14T04:39:01;6.93;;;2.15;;
31308;SDS011;17936;52.446;10.840;2023-06-14T04:41:31;10.10;;;1.70;;
31308;SDS011;17936;52.446;10.840;2023-06-14T04:43:57;4.32;;;2.15;;
31308;SDS011;17936;52.446;10.840;2023-06-14T04:46:29;4.95;;;1.70;;
31308;SDS011;17936;52.446;10.840;2023-06-14T04:48:57;5.10;;;1.77;;
31308;SDS011;17936;52.446;10.840;2023-06-14T04:51:26;4.43;;;2.10;;
31308;SDS011;17936;52.446;10.840;2023-06-14T04:53:57;3.70;;;1.98;;
31308;SDS011;17936;52.446;10.840;2023-06-14T04:56:23;4.40;;;1.88;;
31308;SDS011;17936;52.446;10.840;2023-06-14T04:58:52;8.10;;;2.10;;
31308;SDS011;17936;52.446;10.840;2023-06-14T05:01:18;4.28;;;1.92;;
31308;SDS011;17936;52.446;10.840;2023-06-14T05:03:46;7.00;;;2.25;;
31308;SDS011;17936;52.446;10.840;2023-06-14T05:06:13;7.57;;;1.73;;
31308;SDS011;17936;52.446;10.840;2023-06-14T05:08:39;4.15;;;1.95;;
31308;SDS011;17936;52.446;10.840;2023-06-14T05:11:04;7.82;;;1.80;;
31308;SDS011;17936;52.446;10.840;2023-06-14T05:13:29;2.95;;;1.98;;
31308;SDS011;17936;52.446;10.840;2023-06-14T05:15:57;4.38;;;1.92;;
31308;SDS011;17936;52.446;10.840;2023-06-14T05:18:23;3.40;;;1.90;;
31308;SDS011;17936;52.446;10.840;2023-06-14T05:20:50;2.53;;;1.77;;
31308;SDS011;17936;52.446;10.840;2023-06-14T05:23:15;5.30;;;2.22;;
31308;SDS011;17936;52.446;10.840;2023-06-14T05:25:42;10.85;;;2.00;;
31308;SDS011;17936;52.446;10.840;2023-06-14T05:28:08;2.67;;;1.95;;
31308;SDS011;17936;52.446;10.840;2023-06-14T05:30:34;3.85;;;2.05;;
31308;SDS011;17936;52.446;10.840;2023-06-14T05:33:00;4.78;;;2.10;;
31308;SDS011;17936;52.446;10.840;2023-06-14T05:35:25;4.28;;;2.22;;
31308;SDS011;17936;52.446;10.840;2023-06-14T05:37:51;3.05;;;1.83;;
31308;SDS011;17936;52.446;10.840;2023-06-14T05:40:18;4.10;;;2.20;;
31308;SDS011;17936;52.446;10.840;2023-06-14T05:42:44;4.05;;;2.33;;
31308;SDS011;17936;52.446;10.840;2023-06-14T05:45:10;3.25;;;1.75;;
31308;SDS011;17936;52.446;10.840;2023-06-14T05:47:36;10.43;;;3.25;;
31308;SDS011;17936;52.446;10.840;2023-06-14T05:50:01;5.43;;;2.28;;
31308;SDS011;17936;52.446;10.840;2023-06-14T05:52:27;4.10;;;2.60;;
31308;SDS011;17936;52.446;10.840;2023-06-14T05:54:53;5.43;;;2.42;;
31308;SDS011;17936;52.446;10.840;2023-06-14T05:57:18;3.30;;;2.35;;
31308;SDS011;17936;52.446;10.840;2023-06-14T05:59:44;4.55;;;2.03;;
31308;SDS011;17936;52.446;10.840;2023-06-14T06:02:09;3.33;;;2.20;;
31308;SDS011;17936;52.446;10.840;2023-06-14T06:04:35;3.75;;;2.40;;
31308;SDS011;17936;52.446;10.840;2023-06-14T06:07:01;5.80;;;2.20;;
31308;SDS011;17936;52.446;10.840;2023-06-14T06:09:26;4.97;;;2.53;;
31308;SDS011;17936;52.446;10.840;2023-06-14T06:11:52;7.75;;;2.28;;
31308;SDS011;17936;52.446;10.840;2023-06-14T06:14:17;4.95;;;2.30;;
31308;SDS011;17936;52.446;10.840;2023-06-14T06:16:43;3.53;;;2.00;;
31308;SDS011;17936;52.446;10.840;2023-06-14T06:19:08;3.55;;;2.53;;
31308;SDS011;17936;52.446;10.840;2023-06-14T06:21:34;4.55;;;2.38;;
31308;SDS011;17936;52.446;10.840;2023-06-14T06:23:59;4.03;;;2.30;;
31308;SDS011;17936;52.446;10.840;2023-06-14T06:26:28;6.90;;;2.40;;
31308;SDS011;17936;52.446;10.840;2023-06-14T06:28:54;5.88;;;2.60;;
31308;SDS011;17936;52.446;10.840;2023-06-14T06:31:20;3.85;;;2.17;;
31308;SDS011;17936;52.446;10.840;2023-06-14T06:33:47;8.20;;;2.38;;
31308;SDS011;17936;52.446;10.840;2023-06-14T06:36:13;4.65;;;2.50;;
31308;SDS011;17936;52.446;10.840;2023-06-14T06:38:38;4.60;;;2.17;;
31308;SDS011;17936;52.446;10.840;2023-06-14T06:41:04;8.65;;;2.25;;
31308;SDS011;17936;52.446;10.840;2023-06-14T06:43:29;6.78;;;2.00;;
31308;SDS011;17936;52.446;10.840;2023-06-14T06:45:55;4.35;;;2.63;;
31308;SDS011;17936;52.446;10.840;2023-06-14T06:48:20;3.90;;;2.42;;
31308;SDS011;17936;52.446;10.840;2023-06-14T06:50:46;3.45;;;2.58;;
31308;SDS011;17936;52.446;10.840;2023-06-14T06:53:11;3.38;;;2.17;;
31308;SDS011;17936;52.446;10.840;2023-06-14T06:55:37;3.65;;;2.20;;
31308;SDS011;17936;52.446;10.840;2023-06-14T06:58:02;5.95;;;2.40;;
31308;SDS011;17936;52.446;10.840;2023-06-14T07:00:30;3.22;;;2.08;;
31308;SDS011;17936;52.446;10.840;2023-06-14T07:02:55;3.38;;;1.85;;
31308;SDS011;17936;52.446;10.840;2023-06-14T07:05:21;3.58;;;2.40;;
31308;SDS011;17936;52.446;10.840;2023-06-14T07:07:47;4.15;;;1.95;;
31308;SDS011;17936;52.446;10.840;2023-06-14T07:10:13;2.63;;;1.73;;
31308;SDS011;17936;52.446;10.840;2023-06-14T07:12:38;5.05;;;1.92;;
31308;SDS011;17936;52.446;10.840;2023-06-14T07:15:05;2.45;;;1.55;;
31308;SDS011;17936;52.446;10.840;2023-06-14T07:17:32;2.83;;;1.70;;
31308;SDS011;17936;52.446;10.840;2023-06-14T07:19:58;3.58;;;1.73;;
31308;SDS011;17936;52.446;10.840;2023-06-14T07:22:25;4.45;;;1.77;;
31308;SDS011;17936;52.446;10.840;2023-06-14T07:24:51;3.80;;;1.88;;
31308;SDS011;17936;52.446;10.840;2023-06-14T07:27:17;3.78;;;2.10;;
31308;SDS011;17936;52.446;10.840;2023-06-14T07:29:42;2.70;;;1.73;;
31308;SDS011;17936;52.446;10.840;2023-06-14T07:32:08;3.63;;;2.17;;
31308;SDS011;17936;52.446;10.840;2023-06-14T07:34:33;4.03;;;2.08;;
31308;SDS011;17936;52.446;10.840;2023-06-14T07:36:59;7.32;;;2.58;;
31308;SDS011;17936;52.446;10.840;2023-06-14T07:39:25;3.45;;;2.00;;
31308;SDS011;17936;52.446;10.840;2023-06-14T07:41:50;2.55;;;1.77;;
31308;SDS011;17936;52.446;10.840;2023-06-14T07:44:20;4.15;;;2.17;;
31308;SDS011;17936;52.446;10.840;2023-06-14T07:46:45;6.88;;;2.45;;
31308;SDS011;17936;52.446;10.840;2023-06-14T07:49:16;5.55;;;2.10;;
31308;SDS011;17936;52.446;10.840;2023-06-14T07:51:44;5.22;;;2.20;;
31308;SDS011;17936;52.446;10.840;2023-06-14T07:54:10;3.42;;;1.90;;
31308;SDS011;17936;52.446;10.840;2023-06-14T07:56:35;3.85;;;2.00;;
31308;SDS011;17936;52.446;10.840;2023-06-14T07:59:03;11.65;;;1.95;;
31308;SDS011;17936;52.446;10.840;2023-06-14T08:01:30;3.95;;;1.90;;
31308;SDS011;17936;52.446;10.840;2023-06-14T08:03:56;7.65;;;2.25;;
31308;SDS011;17936;52.446;10.840;2023-06-14T08:06:22;2.95;;;1.75;;
31308;SDS011;17936;52.446;10.840;2023-06-14T08:08:48;4.22;;;2.10;;
31308;SDS011;17936;52.446;10.840;2023-06-14T08:11:14;6.35;;;1.73;;
31308;SDS011;17936;52.446;10.840;2023-06-14T08:13:39;3.63;;;1.85;;
31308;SDS011;17936;52.446;10.840;2023-06-14T08:16:06;3.63;;;1.85;;
31308;SDS011;17936;52.446;10.840;2023-06-14T08:18:32;13.57;;;1.90;;
31308;SDS011;17936;52.446;10.840;2023-06-14T08:20:59;9.70;;;2.30;;
31308;SDS011;17936;52.446;10.840;2023-06-14T08:23:24;3.35;;;1.80;;
31308;SDS011;17936;52.446;10.840;2023-06-14T08:25:56;5.97;;;1.98;;
31308;SDS011;17936;52.446;10.840;2023-06-14T08:28:23;4.40;;;2.03;;
31308;SDS011;17936;52.446;10.840;2023-06-14T08:30:49;4.00;;;1.73;;
31308;SDS011;17936;52.446;10.840;2023-06-14T08:33:16;5.35;;;1.58;;
31308;SDS011;17936;52.446;10.840;2023-06-14T08:35:44;4.55;;;1.88;;
31308;SDS011;17936;52.446;10.840;2023-06-14T08:38:10;5.82;;;2.10;;
31308;SDS011;17936;52.446;10.840;2023-06-14T08:40:38;4.45;;;1.80;;
31308;SDS011;17936;52.446;10.840;2023-06-14T08:43:07;3.63;;;2.00;;
31308;SDS011;17936;52.446;10.840;2023-06-14T08:45:32;2.72;;;1.70;;
31308;SDS011;17936;52.446;10.840;2023-06-14T08:48:02;2.20;;;1.50;;
31308;SDS011;17936;52.446;10.840;2023-06-14T08:50:36;2.22;;;1.50;;
31308;SDS011;17936;52.446;10.840;2023-06-14T08:53:07;2.90;;;1.63;;
31308;SDS011;17936;52.446;10.840;2023-06-14T08:55:38;5.97;;;2.10;;
31308;SDS011;17936;52.446;10.840;2023-06-14T08:58:07;2.75;;;1.75;;
31308;SDS011;17936;52.446;10.840;2023-06-14T09:00:34;3.42;;;1.65;;
31308;SDS011;17936;52.446;10.840;2023-06-14T09:03:04;3.20;;;1.90;;
31308;SDS011;17936;52.446;10.840;2023-06-14T09:05:30;2.75;;;1.70;;
31308;SDS011;17936;52.446;10.840;2023-06-14T09:07:58;7.47;;;1.70;;
31308;SDS011;17936;52.446;10.840;2023-06-14T09:10:25;2.92;;;1.80;;
31308;SDS011;17936;52.446;10.840;2023-06-14T09:12:52;2.40;;;1.60;;
31308;SDS011;17936;52.446;10.840;2023-06-14T09:15:18;8.63;;;1.70;;
31308;SDS011;17936;52.446;10.840;2023-06-14T09:17:45;2.65;;;1.63;;
31308;SDS011;17936;52.446;10.840;2023-06-14T09:20:11;5.70;;;2.20;;
31308;SDS011;17936;52.446;10.840;2023-06-14T09:22:42;3.53;;;1.60;;
31308;SDS011;17936;52.446;10.840;2023-06-14T09:25:08;4.15;;;1.85;;
31308;SDS011;17936;52.446;10.840;2023-06-14T09:27:34;2.67;;;1.90;;
31308;SDS011;17936;52.446;10.840;2023-06-14T09:30:00;5.25;;;1.80;;
31308;SDS011;17936;52.446;10.840;2023-06-14T09:32:30;5.13;;;2.08;;
31308;SDS011;17936;52.446;10.840;2023-06-14T09:34:56;4.55;;;2.00;;
31308;SDS011;17936;52.446;10.840;2023-06-14T09:37:28;3.33;;;2.38;;
31308;SDS011;17936;52.446;10.840;2023-06-14T09:39:54;6.22;;;1.98;;
31308;SDS011;17936;52.446;10.840;2023-06-14T09:42:20;3.15;;;2.10;;
31308;SDS011;17936;52.446;10.840;2023-06-14T09:44:49;5.90;;;2.55;;
31308;SDS011;17936;52.446;10.840;2023-06-14T09:47:16;4.05;;;2.65;;
31308;SDS011;17936;52.446;10.840;2023-06-14T09:49:41;6.35;;;2.47;;
31308;SDS011;17936;52.446;10.840;2023-06-14T09:52:10;7.85;;;2.83;;
31308;SDS011;17936;52.446;10.840;2023-06-14T09:54:43;6.60;;;2.50;;
31308;SDS011;17936;52.446;10.840;2023-06-14T09:57:14;8.30;;;2.63;;
31308;SDS011;17936;52.446;10.840;2023-06-14T09:59:42;6.13;;;2.60;;
31308;SDS011;17936;52.446;10.840;2023-06-14T10:02:14;3.95;;;2.50;;
31308;SDS011;17936;52.446;10.840;2023-06-14T10:05:15;4.35;;;2.40;;
31308;SDS011;17936;52.446;10.840;2023-06-14T10:07:48;6.15;;;2.70;;
31308;SDS011;17936;52.446;10.840;2023-06-14T10:10:20;6.97;;;2.90;;
31308;SDS011;17936;52.446;10.840;2023-06-14T10:12:46;3.42;;;2.67;;
31308;SDS011;17936;52.446;10.840;2023-06-14T10:15:15;6.63;;;2.60;;
31308;SDS011;17936;52.446;10.840;2023-06-14T10:23:40;3.25;;;2.05;;
31308;SDS011;17936;52.446;10.840;2023-06-14T10:26:08;8.77;;;2.60;;
31308;SDS011;17936;52.446;10.840;2023-06-14T10:31:41;5.47;;;2.10;;
31308;SDS011;17936;52.446;10.840;2023-06-14T10:34:07;7.15;;;2.40;;
31308;SDS011;17936;52.446;10.840;2023-06-14T10:36:33;11.07;;;3.10;;
31308;SDS011;17936;52.446;10.840;2023-06-14T10:39:06;5.95;;;2.47;;
31308;SDS011;17936;52.446;10.840;2023-06-14T10:41:37;5.10;;;2.70;;
31308;SDS011;17936;52.446;10.840;2023-06-14T10:46:39;4.15;;;2.60;;
31308;SDS011;17936;52.446;10.840;2023-06-14T10:49:05;8.43;;;2.63;;
31308;SDS011;17936;52.446;10.840;2023-06-14T10:51:41;4.65;;;2.75;;
31308;SDS011;17936;52.446;10.840;2023-06-14T10:54:11;5.32;;;2.55;;
31308;SDS011;17936;52.446;10.840;2023-06-14T10:56:38;5.43;;;2.35;;
31308;SDS011;17936;52.446;10.840;2023-06-14T10:59:17;7.88;;;2.30;;
31308;SDS011;17936;52.446;10.840;2023-06-14T11:04:12;5.88;;;2.70;;
31308;SDS011;17936;52.446;10.840;2023-06-14T11:06:45;4.80;;;2.65;;
31308;SDS011;17936;52.446;10.840;2023-06-14T11:12:02;5.97;;;2.42;;
31308;SDS011;17936;52.446;10.840;2023-06-14T11:14:30;5.63;;;2.40;;
31308;SDS011;17936;52.446;10.840;2023-06-14T11:16:56;8.05;;;2.40;;
31308;SDS011;17936;52.446;10.840;2023-06-14T11:19:21;5.20;;;2.70;;
31308;SDS011;17936;52.446;10.840;2023-06-14T11:21:48;7.18;;;2.60;;
31308;SDS011;17936;52.446;10.840;2023-06-14T11:24:14;5.38;;;2.60;;
31308;SDS011;17936;52.446;10.840;2023-06-14T11:26:40;6.03;;;2.40;;
31308;SDS011;17936;52.446;10.840;2023-06-14T11:29:05;3.70;;;2.38;;
31308;SDS011;17936;52.446;10.840;2023-06-14T11:31:31;5.55;;;2.67;;
31308;SDS011;17936;52.446;10.840;2023-06-14T11:33:57;6.75;;;2.60;;
31308;SDS011;17936;52.446;10.840;2023-06-14T11:36:27;5.65;;;2.10;;
31308;SDS011;17936;52.446;10.840;2023-06-14T11:39:07;6.82;;;2.30;;
31308;SDS011;17936;52.446;10.840;2023-06-14T11:41:37;7.60;;;2.50;;
31308;SDS011;17936;52.446;10.840;2023-06-14T11:44:07;11.18;;;2.33;;
31308;SDS011;17936;52.446;10.840;2023-06-14T11:46:33;5.18;;;2.40;;
31308;SDS011;17936;52.446;10.840;2023-06-14T11:48:59;7.00;;;2.40;;
31308;SDS011;17936;52.446;10.840;2023-06-14T11:51:28;8.13;;;3.10;;
31308;SDS011;17936;52.446;10.840;2023-06-14T11:54:04;5.25;;;2.45;;
31308;SDS011;17936;52.446;10.840;2023-06-14T11:56:31;5.68;;;2.40;;
31308;SDS011;17936;52.446;10.840;2023-06-14T11:58:57;12.90;;;2.47;;
31308;SDS011;17936;52.446;10.840;2023-06-14T12:01:22;4.00;;;2.40;;
31308;SDS011;17936;52.446;10.840;2023-06-14T12:03:50;8.65;;;2.45;;
31308;SDS011;17936;52.446;10.840;2023-06-14T12:06:25;3.95;;;2.65;;
31308;SDS011;17936;52.446;10.840;2023-06-14T12:08:57;13.48;;;2.63;;
31308;SDS011;17936;52.446;10.840;2023-06-14T12:11:23;4.25;;;2.35;;
31308;SDS011;17936;52.446;10.840;2023-06-14T12:13:53;10.77;;;3.00;;
31308;SDS011;17936;52.446;10.840;2023-06-14T12:16:18;3.92;;;2.58;;
31308;SDS011;17936;52.446;10.840;2023-06-14T12:18:44;4.82;;;2.33;;
31308;SDS011;17936;52.446;10.840;2023-06-14T12:21:10;9.88;;;2.40;;
31308;SDS011;17936;52.446;10.840;2023-06-14T12:26:07;4.60;;;2.37;;
31308;SDS011;17936;52.446;10.840;2023-06-14T12:28:32;3.88;;;2.58;;
31308;SDS011;17936;52.446;10.840;2023-06-14T12:30:58;9.93;;;2.53;;
31308;SDS011;17936;52.446;10.840;2023-06-14T12:33:24;12.02;;;2.63;;
31308;SDS011;17936;52.446;10.840;2023-06-14T12:35:50;4.72;;;2.42;;
31308;SDS011;17936;52.446;10.840;2023-06-14T12:38:16;5.15;;;2.65;;
31308;SDS011;17936;52.446;10.840;2023-06-14T12:40:41;7.15;;;2.40;;
31308;SDS011;17936;52.446;10.840;2023-06-14T12:43:07;8.05;;;2.60;;
31308;SDS011;17936;52.446;10.840;2023-06-14T12:45:33;8.00;;;2.30;;
31308;SDS011;17936;52.446;10.840;2023-06-14T12:47:58;6.75;;;3.00;;
31308;SDS011;17936;52.446;10.840;2023-06-14T12:50:24;3.67;;;2.42;;
31308;SDS011;17936;52.446;10.840;2023-06-14T12:52:50;7.30;;;2.50;;
31308;SDS011;17936;52.446;10.840;2023-06-14T12:55:15;6.43;;;2.40;;
31308;SDS011;17936;52.446;10.840;2023-06-14T12:57:41;7.50;;;2.67;;
31308;SDS011;17936;52.446;10.840;2023-06-14T13:00:07;6.38;;;2.00;;
31308;SDS011;17936;52.446;10.840;2023-06-14T13:02:33;3.38;;;2.38;;
31308;SDS011;17936;52.446;10.840;2023-06-14T13:04:58;6.05;;;2.53;;
31308;SDS011;17936;52.446;10.840;2023-06-14T13:07:25;3.58;;;2.47;;
31308;SDS011;17936;52.446;10.840;2023-06-14T13:09:50;4.38;;;2.50;;
31308;SDS011;17936;52.446;10.840;2023-06-14T13:12:16;8.63;;;2.55;;
31308;SDS011;17936;52.446;10.840;2023-06-14T13:14:41;4.25;;;2.60;;
31308;SDS011;17936;52.446;10.840;2023-06-14T13:17:10;5.65;;;2.55;;
31308;SDS011;17936;52.446;10.840;2023-06-14T13:19:36;6.22;;;3.00;;
31308;SDS011;17936;52.446;10.840;2023-06-14T13:22:01;8.88;;;2.85;;
31308;SDS011;17936;52.446;10.840;2023-06-14T13:24:27;5.00;;;2.47;;
31308;SDS011;17936;52.446;10.840;2023-06-14T13:26:54;8.27;;;2.28;;
31308;SDS011;17936;52.446;10.840;2023-06-14T13:29:20;7.28;;;2.85;;
31308;SDS011;17936;52.446;10.840;2023-06-14T13:31:46;6.75;;;2.60;;
31308;SDS011;17936;52.446;10.840;2023-06-14T13:34:11;6.07;;;2.30;;
31308;SDS011;17936;52.446;10.840;2023-06-14T13:36:37;8.40;;;3.00;;
31308;SDS011;17936;52.446;10.840;2023-06-14T13:39:02;7.85;;;2.80;;
31308;SDS011;17936;52.446;10.840;2023-06-14T13:41:28;7.38;;;2.55;;
31308;SDS011;17936;52.446;10.840;2023-06-14T13:43:57;6.82;;;2.50;;
31308;SDS011;17936;52.446;10.840;2023-06-14T13:46:23;9.63;;;2.88;;
31308;SDS011;17936;52.446;10.840;2023-06-14T13:48:49;7.15;;;2.83;;
31308;SDS011;17936;52.446;10.840;2023-06-14T13:51:14;7.75;;;2.90;;
31308;SDS011;17936;52.446;10.840;2023-06-14T13:53:42;6.95;;;2.42;;
31308;SDS011;17936;52.446;10.840;2023-06-14T13:56:07;7.28;;;2.60;;
31308;SDS011;17936;52.446;10.840;2023-06-14T13:58:33;6.28;;;2.50;;
31308;SDS011;17936;52.446;10.840;2023-06-14T14:00:58;7.63;;;2.83;;
31308;SDS011;17936;52.446;10.840;2023-06-14T14:03:24;3.95;;;2.60;;
31308;SDS011;17936;52.446;10.840;2023-06-14T14:05:50;5.28;;;2.17;;
31308;SDS011;17936;52.446;10.840;2023-06-14T14:08:15;7.13;;;2.78;;
31308;SDS011;17936;52.446;10.840;2023-06-14T14:10:41;9.27;;;2.40;;
31308;SDS011;17936;52.446;10.840;2023-06-14T14:13:06;4.10;;;2.45;;
31308;SDS011;17936;52.446;10.840;2023-06-14T14:15:32;5.38;;;2.67;;
31308;SDS011;17936;52.446;10.840;2023-06-14T14:17:59;6.07;;;2.85;;
31308;SDS011;17936;52.446;10.840;2023-06-14T14:20:25;6.20;;;2.47;;
31308;SDS011;17936;52.446;10.840;2023-06-14T14:22:50;5.93;;;2.28;;
31308;SDS011;17936;52.446;10.840;2023-06-14T14:25:16;9.07;;;3.00;;
31308;SDS011;17936;52.446;10.840;2023-06-14T14:27:42;6.28;;;2.38;;
31308;SDS011;17936;52.446;10.840;2023-06-14T14:30:07;9.80;;;2.67;;
31308;SDS011;17936;52.446;10.840;2023-06-14T14:32:33;5.28;;;2.60;;
31308;SDS011;17936;52.446;10.840;2023-06-14T14:34:58;7.28;;;2.90;;
31308;SDS011;17936;52.446;10.840;2023-06-14T14:37:24;10.65;;;2.75;;
31308;SDS011;17936;52.446;10.840;2023-06-14T14:39:49;11.98;;;2.50;;
31308;SDS011;17936;52.446;10.840;2023-06-14T14:42:15;6.60;;;2.90;;
31308;SDS011;17936;52.446;10.840;2023-06-14T14:44:40;4.70;;;2.65;;
31308;SDS011;17936;52.446;10.840;2023-06-14T14:47:06;9.50;;;2.65;;
31308;SDS011;17936;52.446;10.840;2023-06-14T14:49:31;5.50;;;2.55;;
31308;SDS011;17936;52.446;10.840;2023-06-14T14:51:57;5.22;;;2.70;;